Time;durP1;ratioP1;P1;durP2;ratioP2;P2;SDS_P1;SDS_P2;PMS_P1;PMS_P2;Temp;Humidity;BMP_temperature;BMP_pressure;BME280_temperature;BME280_humidity;BME280_pressure;Samples;Min_cycle;Max_cycle;Signal;HPM_P1;HPM_P2
2021/08/15 00:01:25;;;;;;;27.58;18.42;;;17.20;81.10;;;;;;5112359;28;20019;-48
2021/08/15 00:03:51;;;;;;;30.05;19.00;;;17.20;81.30;;;;;;5112650;28;20043;-47
2021/08/15 00:06:17;;;;;;;26.13;17.23;;;17.10;81.40;;;;;;5112342;28;20041;-47
2021/08/15 00:08:44;;;;;;;26.02;18.17;;;17.10;81.70;;;;;;5112742;28;20028;-49
2021/08/15 00:11:10;;;;;;;29.70;17.23;;;17.00;81.80;;;;;;5116163;28;20019;-48
2021/08/15 00:13:35;;;;;;;26.40;16.80;;;16.90;82.00;;;;;;5116298;28;20030;-47
2021/08/15 00:16:01;;;;;;;31.48;16.77;;;16.80;82.10;;;;;;5116368;28;20062;-47
2021/08/15 00:18:27;;;;;;;30.25;18.92;;;16.80;82.10;;;;;;5116085;28;20023;-46
2021/08/15 00:20:53;;;;;;;28.13;18.38;;;16.80;82.10;;;;;;5116242;28;20364;-46
2021/08/15 00:23:18;;;;;;;36.60;20.52;;;16.80;82.10;;;;;;5116632;28;20467;-48
2021/08/15 00:25:44;;;;;;;31.27;18.10;;;16.80;82.20;;;;;;5081408;28;20089;-47
2021/08/15 00:28:10;;;;;;;30.50;19.20;;;16.80;82.20;;;;;;5116309;28;20028;-48
2021/08/15 00:30:35;;;;;;;33.63;19.15;;;16.80;82.20;;;;;;5116242;28;20468;-49
2021/08/15 00:33:01;;;;;;;26.50;18.35;;;16.80;82.60;;;;;;5116710;28;20467;-48
2021/08/15 00:35:27;;;;;;;31.52;19.05;;;16.70;82.70;;;;;;5116117;28;20036;-50
2021/08/15 00:37:53;;;;;;;30.92;16.95;;;16.70;82.60;;;;;;5115941;28;20023;-51
2021/08/15 00:40:18;;;;;;;29.17;18.02;;;16.80;82.50;;;;;;5116092;28;20485;-47
2021/08/15 00:42:44;;;;;;;32.85;19.67;;;16.80;82.30;;;;;;5080219;28;20024;-47
2021/08/15 00:45:10;;;;;;;29.05;20.10;;;16.80;82.30;;;;;;5115858;28;20378;-48
2021/08/15 00:47:36;;;;;;;34.03;20.27;;;16.70;82.80;;;;;;5115356;28;20023;-46
2021/08/15 00:50:04;;;;;;;32.30;20.92;;;16.70;82.90;;;;;;5115650;28;20027;-47
2021/08/15 00:52:29;;;;;;;34.13;20.48;;;16.60;82.90;;;;;;5115658;28;20036;-46
2021/08/15 00:54:57;;;;;;;37.28;20.33;;;16.60;82.90;;;;;;5115422;27;20395;-47
2021/08/15 00:57:28;;;;;;;31.58;20.65;;;16.70;83.10;;;;;;5115466;28;20015;-46
2021/08/15 00:59:54;;;;;;;38.65;23.73;;;16.70;82.70;;;;;;5115036;28;20047;-46
2021/08/15 01:02:20;;;;;;;36.33;20.13;;;16.70;82.80;;;;;;5114969;28;20070;-48
2021/08/15 01:04:46;;;;;;;35.03;20.27;;;16.70;82.90;;;;;;5114935;28;20019;-49
2021/08/15 01:07:13;;;;;;;34.95;22.15;;;16.60;83.00;;;;;;5115133;28;20088;-48
2021/08/15 01:09:40;;;;;;;30.08;20.52;;;16.50;83.20;;;;;;5115022;28;20023;-48
2021/08/15 01:12:06;;;;;;;35.08;21.50;;;16.50;83.40;;;;;;5115047;28;20093;-47
2021/08/15 01:14:31;;;;;;;35.67;20.67;;;16.50;83.40;;;;;;5115389;28;20480;-48
2021/08/15 01:16:57;;;;;;;40.95;21.55;;;16.50;83.60;;;;;;5114985;28;20027;-51
2021/08/15 01:19:29;;;;;;;38.50;22.17;;;16.50;83.50;;;;;;5115023;28;20055;-47
2021/08/15 01:21:56;;;;;;;34.95;20.77;;;16.50;83.60;;;;;;5114407;28;20019;-48
2021/08/15 01:24:22;;;;;;;34.75;21.13;;;16.50;83.60;;;;;;5115033;28;20023;-47
2021/08/15 01:26:48;;;;;;;35.70;23.27;;;16.50;83.50;;;;;;5115028;28;20038;-46
2021/08/15 01:29:13;;;;;;;37.72;21.50;;;16.50;83.50;;;;;;5114903;28;20023;-49
2021/08/15 01:31:39;;;;;;;33.13;22.27;;;16.50;83.40;;;;;;5114949;28;20031;-49
2021/08/15 01:34:05;;;;;;;40.03;25.33;;;16.60;83.20;;;;;;5114726;28;20027;-48
2021/08/15 01:36:30;;;;;;;40.03;21.80;;;16.60;83.20;;;;;;5115288;28;20034;-47
2021/08/15 01:38:56;;;;;;;36.28;19.63;;;16.50;83.20;;;;;;5115046;28;20456;-48
2021/08/15 01:41:22;;;;;;;31.45;19.85;;;16.60;83.20;;;;;;5114725;28;20023;-47
2021/08/15 01:43:57;;;;;;;26.27;18.55;;;16.60;83.30;;;;;;5114720;28;20024;-47
2021/08/15 01:46:28;;;;;;;34.17;19.00;;;16.50;83.10;;;;;;5114622;28;20114;-48
2021/08/15 01:48:54;;;;;;;32.63;19.48;;;16.50;83.10;;;;;;5114991;28;20027;-47
2021/08/15 01:51:21;;;;;;;39.58;20.27;;;16.50;83.10;;;;;;5096755;28;20399;-47
2021/08/15 01:53:48;;;;;;;28.42;18.83;;;16.50;83.10;;;;;;5124031;27;20440;-48
2021/08/15 01:56:14;;;;;;;28.45;19.25;;;16.40;83.30;;;;;;5135409;27;20123;-38
2021/08/15 01:58:40;;;;;;;28.42;17.77;;;16.40;83.20;;;;;;5135034;27;20480;-38
2021/08/15 02:01:06;;;;;;;35.63;21.67;;;16.40;83.40;;;;;;5135060;27;20065;-38
2021/08/15 02:03:32;;;;;;;26.55;18.33;;;16.40;83.40;;;;;;5134764;27;20023;-38
2021/08/15 02:05:57;;;;;;;24.88;17.75;;;16.40;83.40;;;;;;5134772;27;20054;-38
2021/08/15 02:08:23;;;;;;;32.63;20.80;;;16.30;83.50;;;;;;5135098;27;20405;-36
2021/08/15 02:10:50;;;;;;;32.53;18.98;;;16.30;83.70;;;;;;5116333;27;20023;-36
2021/08/15 02:13:16;;;;;;;27.67;17.63;;;16.30;83.70;;;;;;5134835;27;20027;-36
2021/08/15 02:15:42;;;;;;;35.40;19.80;;;16.30;83.70;;;;;;5134559;27;20023;-36
2021/08/15 02:18:08;;;;;;;36.35;19.48;;;16.30;83.50;;;;;;5134844;27;20046;-36
2021/08/15 02:20:35;;;;;;;33.40;18.35;;;16.30;83.30;;;;;;5134559;27;20111;-37
2021/08/15 02:23:01;;;;;;;29.98;18.27;;;16.30;83.40;;;;;;5134533;27;20088;-37
2021/08/15 02:25:27;;;;;;;29.83;17.15;;;16.30;83.50;;;;;;5134529;27;20015;-37
2021/08/15 02:27:54;;;;;;;27.98;17.85;;;16.30;83.60;;;;;;5134769;27;20042;-37
2021/08/15 02:30:21;;;;;;;27.50;17.05;;;16.20;83.70;;;;;;5134828;27;20027;-37
2021/08/15 02:32:48;;;;;;;27.00;16.58;;;16.10;83.80;;;;;;5133845;27;20031;-37
2021/08/15 02:35:14;;;;;;;25.58;17.15;;;16.20;83.90;;;;;;5134153;27;20027;-37
2021/08/15 02:37:43;;;;;;;24.38;15.98;;;16.10;83.90;;;;;;5134124;27;20034;-38
2021/08/15 02:40:10;;;;;;;27.60;16.23;;;16.10;84.00;;;;;;5134092;27;20140;-38
2021/08/15 02:42:39;;;;;;;27.05;17.00;;;16.00;84.00;;;;;;5134127;27;20026;-37
2021/08/15 02:45:07;;;;;;;22.80;16.02;;;16.00;84.20;;;;;;5134215;27;20551;-37
2021/08/15 02:47:33;;;;;;;22.73;15.43;;;16.10;83.80;;;;;;5133840;27;20030;-37
2021/08/15 02:49:59;;;;;;;18.58;13.60;;;16.00;83.70;;;;;;5134299;27;20348;-37
2021/08/15 02:52:24;;;;;;;23.45;15.90;;;15.90;84.00;;;;;;5133915;27;20172;-37
2021/08/15 02:54:50;;;;;;;26.65;15.77;;;15.90;84.00;;;;;;5115240;27;20035;-37
2021/08/15 02:57:16;;;;;;;27.13;15.40;;;15.90;84.00;;;;;;5113325;28;20494;-37
2021/08/15 02:59:41;;;;;;;31.83;15.57;;;15.90;83.90;;;;;;5113538;28;20506;-38
2021/08/15 03:02:18;;;;;;;26.38;16.50;;;15.90;84.00;;;;;;5113290;28;20058;-37
2021/08/15 03:04:45;;;;;;;26.85;16.02;;;15.80;84.10;;;;;;5113849;28;20020;-37
2021/08/15 03:07:11;;;;;;;23.45;15.10;;;15.80;84.20;;;;;;5113563;28;20081;-37
2021/08/15 03:09:37;;;;;;;30.48;15.48;;;15.80;84.30;;;;;;5113237;28;20059;-38
2021/08/15 03:12:03;;;;;;;25.50;15.68;;;15.90;84.10;;;;;;5113513;28;20063;-38
2021/08/15 03:14:29;;;;;;;22.88;15.02;;;15.90;84.10;;;;;;5113209;28;20409;-37
2021/08/15 03:16:55;;;;;;;24.70;15.07;;;15.90;83.90;;;;;;5113173;28;20098;-38
2021/08/15 03:19:20;;;;;;;25.10;15.63;;;15.90;83.90;;;;;;5113144;28;20019;-38
2021/08/15 03:21:46;;;;;;;25.08;15.52;;;15.90;83.90;;;;;;5113432;28;20054;-38
2021/08/15 03:24:12;;;;;;;24.80;16.83;;;15.90;84.10;;;;;;5113428;28;20069;-38
2021/08/15 03:26:41;;;;;;;30.15;16.85;;;15.90;84.00;;;;;;5113348;28;20032;-37
2021/08/15 03:29:06;;;;;;;26.05;16.60;;;15.90;84.00;;;;;;5113066;28;20145;-38
2021/08/15 03:31:33;;;;;;;28.33;16.67;;;15.90;84.10;;;;;;5113075;28;20051;-37
2021/08/15 03:33:58;;;;;;;22.55;15.82;;;15.90;84.20;;;;;;5113063;28;20488;-38
2021/08/15 03:36:24;;;;;;;29.00;17.55;;;15.80;84.20;;;;;;5112894;28;20074;-38
2021/08/15 03:38:50;;;;;;;28.17;16.77;;;15.80;84.40;;;;;;5112986;28;20048;-38
2021/08/15 03:41:15;;;;;;;30.83;16.67;;;15.80;84.40;;;;;;5112995;28;20026;-37
2021/08/15 03:43:41;;;;;;;28.30;17.88;;;15.70;84.50;;;;;;5113196;28;20024;-37
2021/08/15 03:46:07;;;;;;;29.98;15.32;;;15.70;84.60;;;;;;5117323;28;20106;-38
2021/08/15 03:48:32;;;;;;;28.17;17.80;;;15.60;84.80;;;;;;5117220;28;20023;-37
2021/08/15 03:50:58;;;;;;;26.23;16.35;;;15.60;85.00;;;;;;5117231;28;20544;-38
2021/08/15 03:53:23;;;;;;;24.30;15.88;;;15.60;85.10;;;;;;5123157;27;20047;-37
2021/08/15 03:55:49;;;;;;;24.58;15.95;;;15.70;84.70;;;;;;5137521;27;20071;-37
2021/08/15 03:58:15;;;;;;;25.30;16.58;;;15.60;84.70;;;;;;5137404;27;20045;-38
2021/08/15 04:00:40;;;;;;;26.58;16.80;;;15.60;84.80;;;;;;5137605;27;20030;-38
2021/08/15 04:03:15;;;;;;;26.15;16.05;;;15.60;84.80;;;;;;5137494;27;20038;-38
2021/08/15 04:05:41;;;;;;;29.35;17.05;;;15.60;84.80;;;;;;5137195;27;20046;-37
2021/08/15 04:08:08;;;;;;;30.45;19.10;;;15.60;84.90;;;;;;5137356;27;20058;-37
2021/08/15 04:10:35;;;;;;;28.30;17.00;;;15.60;84.70;;;;;;5137340;27;20031;-37
2021/08/15 04:13:00;;;;;;;27.55;17.55;;;15.60;85.00;;;;;;5137122;27;20531;-37
2021/08/15 04:15:27;;;;;;;31.55;17.80;;;15.70;84.80;;;;;;5136954;27;20027;-37
2021/08/15 04:17:53;;;;;;;31.30;18.58;;;15.60;84.70;;;;;;5137028;27;20099;-37
2021/08/15 04:20:19;;;;;;;28.48;18.90;;;15.70;84.70;;;;;;5136859;27;20585;-38
2021/08/15 04:22:44;;;;;;;27.25;16.98;;;15.70;84.70;;;;;;5137129;27;20026;-38
2021/08/15 04:25:11;;;;;;;30.13;17.23;;;15.70;84.70;;;;;;5137047;27;20023;-38
2021/08/15 04:27:36;;;;;;;32.60;19.20;;;15.80;84.50;;;;;;5136737;27;20027;-38
2021/08/15 04:30:06;;;;;;;31.83;21.05;;;15.80;84.40;;;;;;5136837;27;20126;-38
2021/08/15 04:32:32;;;;;;;33.47;19.60;;;15.90;84.00;;;;;;5136627;27;20023;-38
2021/08/15 04:34:58;;;;;;;28.08;19.30;;;16.00;84.10;;;;;;5136820;27;20023;-38
2021/08/15 04:37:24;;;;;;;31.75;21.15;;;16.00;84.00;;;;;;5136927;27;20416;-37
2021/08/15 04:39:49;;;;;;;40.63;24.15;;;16.00;84.10;;;;;;5136182;27;20031;-38
2021/08/15 04:42:15;;;;;;;36.67;23.50;;;16.00;84.10;;;;;;5136565;27;20015;-37
2021/08/15 04:44:41;;;;;;;39.38;21.95;;;16.00;83.90;;;;;;5118048;27;20029;-38
2021/08/15 04:47:06;;;;;;;38.22;23.67;;;16.10;83.70;;;;;;5136088;27;20023;-38
2021/08/15 04:49:32;;;;;;;36.00;21.80;;;16.10;83.70;;;;;;5136482;27;20408;-38
2021/08/15 04:51:58;;;;;;;39.53;23.00;;;16.10;83.40;;;;;;5136341;27;20102;-38
2021/08/15 04:54:27;;;;;;;41.33;24.52;;;16.20;83.40;;;;;;5117647;27;20043;-38
2021/08/15 04:56:53;;;;;;;38.92;25.05;;;16.30;83.10;;;;;;5135051;27;20035;-37
2021/08/15 04:59:19;;;;;;;31.98;21.35;;;16.30;83.00;;;;;;5135775;27;20023;-38
2021/08/15 05:01:44;;;;;;;32.70;20.88;;;16.30;82.90;;;;;;5136204;27;20079;-38
2021/08/15 05:04:10;;;;;;;40.05;22.40;;;16.30;82.70;;;;;;5136286;27;20027;-37
2021/08/15 05:06:36;;;;;;;37.60;21.95;;;16.50;82.20;;;;;;5136242;27;20027;-37
2021/08/15 05:09:03;;;;;;;34.50;20.95;;;16.50;82.20;;;;;;5136097;27;20529;-38
2021/08/15 05:11:29;;;;;;;35.20;22.73;;;16.50;82.10;;;;;;5135959;27;20023;-38
2021/08/15 05:13:54;;;;;;;30.98;18.77;;;16.50;82.20;;;;;;5136038;27;20031;-38
2021/08/15 05:16:20;;;;;;;34.40;19.92;;;16.50;82.10;;;;;;5135681;27;20106;-38
2021/08/15 05:18:45;;;;;;;30.60;19.80;;;16.50;82.30;;;;;;5135802;27;20023;-38
2021/08/15 05:21:11;;;;;;;35.85;19.85;;;16.50;82.10;;;;;;5135024;27;20098;-38
2021/08/15 05:23:37;;;;;;;45.28;26.15;;;16.50;82.10;;;;;;5135254;27;20424;-37
2021/08/15 05:26:03;;;;;;;36.75;23.27;;;16.60;82.30;;;;;;5117357;27;20019;-37
2021/08/15 05:28:28;;;;;;;43.00;24.95;;;16.60;82.10;;;;;;5135818;27;20447;-38
2021/08/15 05:30:54;;;;;;;36.97;23.65;;;16.60;82.20;;;;;;5135594;27;20399;-37
2021/08/15 05:33:20;;;;;;;35.67;23.40;;;16.60;82.30;;;;;;5135551;27;20027;-38
2021/08/15 05:35:46;;;;;;;37.90;25.27;;;16.70;82.30;;;;;;5135461;27;20386;-38
2021/08/15 05:38:11;;;;;;;38.88;23.20;;;16.70;82.10;;;;;;5135073;27;20363;-38
2021/08/15 05:40:37;;;;;;;38.33;23.42;;;16.80;82.00;;;;;;5135655;27;20026;-38
2021/08/15 05:43:02;;;;;;;39.67;22.85;;;16.80;81.90;;;;;;5135395;27;20030;-38
2021/08/15 05:45:28;;;;;;;39.92;24.27;;;17.00;81.60;;;;;;5135269;27;20092;-38
2021/08/15 05:47:54;;;;;;;40.05;22.77;;;17.10;80.60;;;;;;5135212;27;20028;-37
2021/08/15 05:50:20;;;;;;;38.92;22.58;;;17.30;80.40;;;;;;5135113;27;20023;-37
2021/08/15 05:52:46;;;;;;;37.78;22.92;;;17.40;79.70;;;;;;5135006;27;20110;-37
2021/08/15 05:55:12;;;;;;;42.58;22.40;;;17.40;80.20;;;;;;5135370;27;20206;-38
2021/08/15 05:57:38;;;;;;;30.90;21.00;;;17.30;80.40;;;;;;5135037;27;20031;-37
2021/08/15 06:00:05;;;;;;;35.17;21.67;;;17.40;80.40;;;;;;5134589;27;20025;-36
2021/08/15 06:02:31;;;;;;;34.75;22.17;;;17.40;80.40;;;;;;5135118;27;20038;-37
2021/08/15 06:04:56;;;;;;;35.45;22.90;;;17.50;80.20;;;;;;5134902;27;20023;-36
2021/08/15 06:07:22;;;;;;;36.85;22.30;;;17.60;79.80;;;;;;5134845;27;20023;-37
2021/08/15 06:09:48;;;;;;;34.95;21.13;;;17.70;79.20;;;;;;5116844;27;20527;-36
2021/08/15 06:15:49;;;;;;;33.53;22.52;;;18.20;77.60;;;;;;5135232;27;20179;-37
2021/08/15 06:18:16;;;;;;;40.08;20.85;;;18.20;77.60;;;;;;5134780;27;20072;-37
2021/08/15 06:20:42;;;;;;;45.75;23.63;;;18.30;77.40;;;;;;5134844;27;20029;-37
2021/08/15 06:23:08;;;;;;;37.72;22.75;;;18.40;77.00;;;;;;5134802;27;20431;-37
2021/08/15 06:25:33;;;;;;;38.88;21.67;;;18.40;77.30;;;;;;5116168;27;20026;-37
2021/08/15 06:27:59;;;;;;;34.70;23.15;;;18.70;76.60;;;;;;5134501;27;20072;-37
2021/08/15 06:30:25;;;;;;;32.25;21.38;;;18.80;76.10;;;;;;5134399;27;20385;-37
2021/08/15 06:32:55;;;;;;;37.20;22.52;;;18.80;76.10;;;;;;5134371;27;20042;-37
2021/08/15 06:35:26;;;;;;;35.40;22.20;;;18.80;76.70;;;;;;5115738;27;20037;-37
2021/08/15 06:37:53;;;;;;;39.45;22.02;;;18.90;76.50;;;;;;5134932;27;20030;-37
2021/08/15 06:40:20;;;;;;;41.95;22.10;;;18.90;77.20;;;;;;5134666;27;20057;-37
2021/08/15 06:42:46;;;;;;;33.45;21.73;;;19.20;75.90;;;;;;5134202;27;20060;-37
2021/08/15 06:45:13;;;;;;;33.85;20.60;;;19.30;75.30;;;;;;5134495;27;20051;-46
2021/08/15 06:47:39;;;;;;;34.22;22.33;;;19.30;75.90;;;;;;5133830;27;20020;-45
2021/08/15 06:50:07;;;;;;;31.48;20.45;;;19.50;74.80;;;;;;5115653;27;20067;-37
2021/08/15 06:52:33;;;;;;;35.92;19.42;;;19.50;75.00;;;;;;5134210;27;20015;-46
2021/08/15 06:55:00;;;;;;;28.38;17.70;;;19.60;74.80;;;;;;5133991;27;20050;-47
2021/08/15 06:57:26;;;;;;;31.95;16.95;;;19.70;74.30;;;;;;5134033;27;20031;-48
2021/08/15 06:59:52;;;;;;;26.85;17.55;;;19.90;73.60;;;;;;5134100;27;20455;-47
2021/08/15 07:02:18;;;;;;;29.60;18.50;;;19.90;74.00;;;;;;5134171;27;20030;-47
2021/08/15 07:04:44;;;;;;;31.52;17.30;;;19.60;74.80;;;;;;5134424;27;20030;-47
2021/08/15 07:07:10;;;;;;;29.10;17.65;;;19.70;75.10;;;;;;5133777;27;20039;-47
2021/08/15 07:09:36;;;;;;;32.17;18.45;;;20.00;73.50;;;;;;5133830;27;20079;-47
2021/08/15 07:12:01;;;;;;;23.88;16.67;;;20.00;73.70;;;;;;5133923;27;20022;-49
2021/08/15 07:14:29;;;;;;;29.63;17.02;;;20.00;73.30;;;;;;5133766;27;20072;-48
2021/08/15 07:16:58;;;;;;;28.10;15.45;;;19.70;75.10;;;;;;5134140;27;20034;-48
2021/08/15 07:19:24;;;;;;;29.30;16.55;;;19.80;74.30;;;;;;5133269;27;20080;-49
2021/08/15 07:21:50;;;;;;;30.17;17.00;;;20.00;73.90;;;;;;5133770;28;20039;-50
2021/08/15 07:24:16;;;;;;;34.45;15.38;;;20.10;73.50;;;;;;5115155;28;20030;-47
2021/08/15 07:26:42;;;;;;;24.67;15.35;;;20.20;73.60;;;;;;5134868;28;20027;-48
2021/08/15 07:29:08;;;;;;;25.13;15.40;;;20.10;74.10;;;;;;5134464;28;20019;-47
2021/08/15 07:31:33;;;;;;;29.27;16.10;;;20.30;73.40;;;;;;5134498;28;20072;-47
2021/08/15 07:33:59;;;;;;;26.42;16.40;;;20.40;73.20;;;;;;5133766;28;20079;-47
2021/08/15 07:36:25;;;;;;;22.50;14.57;;;20.30;73.90;;;;;;5133631;28;20023;-47
2021/08/15 07:38:51;;;;;;;21.80;12.90;;;20.50;73.60;;;;;;5115172;28;20027;-46
2021/08/15 07:41:17;;;;;;;24.30;13.82;;;20.80;72.60;;;;;;5133577;28;20019;-47
2021/08/15 07:43:42;;;;;;;20.77;12.70;;;20.90;71.90;;;;;;5133538;28;20023;-51
2021/08/15 07:46:13;;;;;;;22.67;13.00;;;21.30;71.40;;;;;;5133698;28;20015;-47
2021/08/15 07:48:42;;;;;;;21.83;12.25;;;21.30;71.50;;;;;;5116689;28;20030;-47
2021/08/15 07:51:08;;;;;;;21.98;12.93;;;21.60;70.50;;;;;;5133356;28;20105;-48
2021/08/15 07:53:34;;;;;;;22.50;11.85;;;21.70;70.40;;;;;;5132997;28;20081;-46
2021/08/15 07:56:00;;;;;;;20.10;11.18;;;21.90;69.90;;;;;;5133336;28;20482;-47
2021/08/15 07:58:25;;;;;;;28.63;11.27;;;22.10;69.10;;;;;;5133158;28;20076;-46
2021/08/15 08:00:52;;;;;;;18.05;9.85;;;22.30;68.10;;;;;;5133417;28;20042;-47
2021/08/15 08:03:19;;;;;;;17.70;8.95;;;22.50;67.60;;;;;;5133412;28;20083;-47
2021/08/15 08:05:45;;;;;;;12.93;8.63;;;23.30;65.10;;;;;;5133551;28;20095;-48
2021/08/15 08:08:11;;;;;;;13.80;8.13;;;23.90;63.80;;;;;;5133698;28;20493;-50
2021/08/15 08:10:38;;;;;;;15.43;6.78;;;24.40;60.30;;;;;;5133387;28;20031;-46
2021/08/15 08:13:07;;;;;;;11.13;4.63;;;23.70;61.40;;;;;;5133352;28;20034;-46
2021/08/15 08:15:33;;;;;;;9.97;5.47;;;23.20;62.50;;;;;;5133536;28;20027;-48
2021/08/15 08:17:58;;;;;;;10.27;5.68;;;23.30;61.50;;;;;;5133343;28;20272;-47
2021/08/15 08:20:24;;;;;;;9.65;5.00;;;23.50;60.80;;;;;;5133339;28;20375;-48
2021/08/15 08:22:50;;;;;;;11.65;6.07;;;23.40;61.30;;;;;;5133478;28;20066;-49
2021/08/15 08:25:17;;;;;;;13.02;5.47;;;23.90;60.30;;;;;;5133882;28;20051;-48
2021/08/15 08:27:43;;;;;;;9.50;4.53;;;24.80;57.60;;;;;;5133139;28;20023;-48
2021/08/15 08:30:10;;;;;;;9.55;5.03;;;24.70;57.60;;;;;;5133108;27;20015;-47
2021/08/15 08:32:35;;;;;;;10.48;4.15;;;24.70;57.70;;;;;;5136396;27;20019;-48
2021/08/15 08:35:01;;;;;;;12.05;4.90;;;24.50;57.20;;;;;;5137050;27;20072;-49
2021/08/15 08:37:26;;;;;;;12.52;5.38;;;24.40;57.90;;;;;;5136857;27;20111;-48
2021/08/15 08:39:56;;;;;;;10.90;4.43;;;24.30;57.80;;;;;;5136913;27;20031;-47
2021/08/15 08:42:22;;;;;;;8.98;4.28;;;24.30;57.80;;;;;;5137287;27;20023;-48
2021/08/15 08:44:48;;;;;;;9.77;4.57;;;24.30;57.70;;;;;;5118085;27;20076;-50
2021/08/15 08:47:14;;;;;;;13.05;5.05;;;24.20;58.20;;;;;;5136393;27;20069;-49
2021/08/15 08:49:41;;;;;;;8.75;4.20;;;24.30;58.00;;;;;;5136332;27;20027;-48
2021/08/15 08:52:08;;;;;;;9.10;4.72;;;24.30;58.40;;;;;;5136906;27;20031;-46
2021/08/15 08:54:34;;;;;;;9.13;4.97;;;24.30;58.10;;;;;;5136101;27;20043;-45
2021/08/15 08:57:01;;;;;;;10.82;5.97;;;23.70;60.10;;;;;;5136433;27;20103;-47
2021/08/15 08:59:27;;;;;;;10.50;4.78;;;23.90;59.90;;;;;;5136309;27;20079;-47
2021/08/15 09:01:53;;;;;;;9.98;4.93;;;24.00;59.00;;;;;;5136716;27;20015;-48
2021/08/15 09:04:19;;;;;;;7.90;4.72;;;24.00;58.70;;;;;;5136131;27;20024;-49
2021/08/15 09:06:44;;;;;;;7.68;4.60;;;24.20;57.90;;;;;;5136186;27;20019;-47
2021/08/15 09:09:18;;;;;;;10.07;5.63;;;23.90;59.10;;;;;;5136275;27;20068;-47
2021/08/15 09:11:51;;;;;;;9.88;4.65;;;24.40;58.30;;;;;;5136418;27;20020;-48
2021/08/15 09:14:24;;;;;;;11.25;5.05;;;24.80;57.10;;;;;;5117481;27;20030;-47
2021/08/15 09:17:03;;;;;;;11.30;5.28;;;24.80;56.90;;;;;;5118201;27;20445;-48
2021/08/15 09:19:35;;;;;;;13.32;5.38;;;24.50;57.80;;;;;;5136385;27;20016;-48
2021/08/15 09:22:16;;;;;;;10.57;4.50;;;24.20;58.90;;;;;;5136015;27;20059;-47
2021/08/15 09:24:45;;;;;;;9.98;5.00;;;24.10;58.40;;;;;;5135827;27;20011;-49
2021/08/15 09:27:10;;;;;;;15.25;4.65;;;24.20;58.40;;;;;;5135716;27;20023;-47
2021/08/15 09:29:36;;;;;;;10.88;5.22;;;24.30;57.40;;;;;;5135718;27;20490;-48
2021/08/15 09:32:02;;;;;;;14.48;5.30;;;23.80;59.00;;;;;;5135539;27;20427;-47
2021/08/15 09:34:29;;;;;;;11.45;5.20;;;23.80;59.60;;;;;;5117068;27;20031;-47
2021/08/15 09:36:55;;;;;;;10.77;4.90;;;24.30;58.20;;;;;;5136076;27;20019;-49
2021/08/15 09:39:35;;;;;;;10.95;5.25;;;24.50;57.10;;;;;;5135510;27;20038;-48
2021/08/15 09:42:01;;;;;;;12.93;4.78;;;24.60;57.00;;;;;;5135287;27;20065;-48
2021/08/15 09:44:31;;;;;;;8.70;5.03;;;24.70;56.80;;;;;;5135383;27;20023;-48
2021/08/15 09:47:08;;;;;;;16.73;6.03;;;24.40;56.80;;;;;;5135540;27;20062;-49
2021/08/15 09:49:34;;;;;;;13.18;4.88;;;24.30;57.60;;;;;;5135354;27;20031;-47
2021/08/15 09:52:01;;;;;;;10.00;5.18;;;24.50;56.50;;;;;;5135086;27;20097;-49
2021/08/15 09:54:27;;;;;;;12.90;5.85;;;24.50;56.90;;;;;;5134770;27;20057;-50
2021/08/15 09:56:55;;;;;;;7.35;5.13;;;24.50;56.50;;;;;;5135062;27;20503;-47
2021/08/15 09:59:22;;;;;;;12.82;5.15;;;24.70;55.70;;;;;;5134910;27;20031;-47
2021/08/15 10:01:53;;;;;;;7.68;3.97;;;25.70;53.70;;;;;;5135121;27;20095;-48
2021/08/15 10:04:21;;;;;;;8.60;4.40;;;26.50;51.00;;;;;;5135027;27;20026;-49
2021/08/15 10:06:49;;;;;;;10.05;4.30;;;27.30;49.80;;;;;;5134634;27;20458;-50
2021/08/15 10:09:15;;;;;;;10.40;4.57;;;27.10;49.50;;;;;;5134589;27;20030;-49
2021/08/15 10:11:42;;;;;;;17.65;6.20;;;27.50;48.50;;;;;;5135018;27;20027;-47
2021/08/15 10:14:09;;;;;;;10.00;5.50;;;28.30;47.00;;;;;;5135227;27;20023;-49
2021/08/15 10:16:38;;;;;;;10.50;5.00;;;27.70;46.70;;;;;;5135051;27;20019;-48
2021/08/15 10:19:10;;;;;;;11.30;6.25;;;26.90;48.90;;;;;;5134867;27;20031;-49
2021/08/15 10:21:41;;;;;;;15.63;6.40;;;27.40;47.60;;;;;;5135296;27;20019;-48
2021/08/15 10:24:10;;;;;;;13.40;4.80;;;27.70;47.30;;;;;;5134553;27;20035;-53
2021/08/15 10:26:35;;;;;;;7.40;4.50;;;26.90;48.80;;;;;;5134418;27;20058;-50
2021/08/15 10:29:03;;;;;;;13.95;5.47;;;26.70;49.40;;;;;;5134363;27;20038;-47
2021/08/15 10:32:07;;;;;;;11.93;6.07;;;27.50;47.70;;;;;;5134400;27;20068;-49
2021/08/15 10:34:51;;;;;;;10.52;4.88;;;28.00;46.80;;;;;;5134227;27;20019;-49
2021/08/15 10:37:23;;;;;;;6.78;3.97;;;28.20;46.20;;;;;;5115778;27;20110;-50
2021/08/15 10:39:50;;;;;;;9.20;4.82;;;26.70;49.10;;;;;;5134126;27;20020;-48
2021/08/15 10:42:37;;;;;;;14.20;5.72;;;26.40;50.30;;;;;;5134193;27;20020;-47
2021/08/15 10:45:13;;;;;;;11.35;4.82;;;26.30;50.80;;;;;;5115781;27;20015;-50
2021/08/15 10:47:39;;;;;;;11.90;4.03;;;26.40;50.10;;;;;;5134374;27;20038;-50
2021/08/15 10:50:07;;;;;;;8.70;4.07;;;26.20;50.60;;;;;;5134210;27;20402;-47
2021/08/15 10:52:39;;;;;;;9.73;5.05;;;26.10;51.00;;;;;;5134380;27;20106;-51
2021/08/15 10:55:18;;;;;;;10.90;4.97;;;26.20;52.00;;;;;;5133527;27;20375;-49
2021/08/15 10:57:52;;;;;;;17.23;6.72;;;27.10;49.40;;;;;;5134572;27;20027;-51
2021/08/15 11:00:30;;;;;;;11.73;4.68;;;27.20;49.10;;;;;;5133951;27;20035;-51
2021/08/15 11:02:57;;;;;;;6.85;4.82;;;27.40;48.70;;;;;;5133948;27;20055;-51
2021/08/15 11:05:37;;;;;;;8.43;4.72;;;26.90;50.30;;;;;;5133985;27;20034;-48
2021/08/15 11:08:04;;;;;;;15.57;5.18;;;26.80;50.40;;;;;;5133639;27;20053;-52
2021/08/15 11:11:07;;;;;;;11.38;5.13;;;27.20;49.30;;;;;;5133603;27;20110;-52
2021/08/15 11:13:34;;;;;;;7.93;4.53;;;27.20;49.20;;;;;;5133768;27;20402;-48
2021/08/15 11:16:25;;;;;;;8.32;4.82;;;27.10;49.30;;;;;;5133724;27;20023;-47
2021/08/15 11:19:23;;;;;;;7.95;4.20;;;27.30;48.60;;;;;;5134160;28;20044;-49
2021/08/15 11:22:16;;;;;;;11.50;4.82;;;27.80;47.20;;;;;;5087910;28;20138;-47
2021/08/15 11:24:45;;;;;;;8.27;5.07;;;28.30;46.30;;;;;;5133652;28;20017;-49
2021/08/15 11:27:14;;;;;;;8.38;4.50;;;29.90;43.20;;;;;;5115125;28;20027;-50
2021/08/15 11:29:42;;;;;;;10.43;4.30;;;29.60;43.20;;;;;;5133663;28;20024;-49
2021/08/15 11:32:13;;;;;;;9.93;6.00;;;29.80;42.50;;;;;;5133401;28;20027;-46
2021/08/15 11:35:08;;;;;;;11.27;5.68;;;28.50;45.30;;;;;;5114877;28;20023;-48
2021/08/15 11:37:38;;;;;;;10.38;3.95;;;29.30;44.20;;;;;;5132985;28;20039;-50
2021/08/15 11:40:16;;;;;;;7.80;4.43;;;28.10;46.50;;;;;;5133451;28;20076;-48
2021/08/15 11:42:44;;;;;;;9.82;3.33;;;27.70;46.10;;;;;;5115409;28;20076;-47
2021/08/15 11:45:10;;;;;;;7.75;3.40;;;27.10;46.80;;;;;;5133667;28;20027;-46
2021/08/15 11:47:39;;;;;;;8.27;3.33;;;27.50;45.10;;;;;;5133733;28;20467;-48
2021/08/15 11:50:17;;;;;;;9.77;3.85;;;27.90;44.30;;;;;;5133317;28;20030;-48
2021/08/15 11:52:44;;;;;;;11.75;3.95;;;28.00;43.70;;;;;;5133036;28;20031;-48
2021/08/15 11:55:26;;;;;;;6.10;3.90;;;28.50;43.00;;;;;;5133245;28;20035;-48
2021/08/15 11:57:52;;;;;;;5.53;3.35;;;29.00;42.90;;;;;;5133455;28;20054;-46
2021/08/15 12:00:35;;;;;;;9.70;4.07;;;28.60;42.90;;;;;;5133196;28;20035;-46
2021/08/15 12:03:07;;;;;;;5.40;3.20;;;29.40;41.60;;;;;;5132975;28;20023;-46
2021/08/15 13:23:03;;;;;;;4.95;3.72;;;29.10;33.20;;;;;;5090456;27;20414;-49
2021/08/15 13:25:29;;;;;;;10.05;3.80;;;29.60;33.30;;;;;;5089566;28;20589;-48
2021/08/15 13:27:57;;;;;;;4.25;3.20;;;29.60;34.40;;;;;;5090329;28;20046;-49
2021/08/15 13:30:23;;;;;;;8.80;3.72;;;29.10;34.00;;;;;;5090211;28;20020;-51
2021/08/15 13:32:49;;;;;;;5.78;2.95;;;29.00;34.90;;;;;;5088832;28;20032;-48
2021/08/15 13:35:14;;;;;;;4.80;2.90;;;29.00;35.30;;;;;;5090113;28;20028;-50
2021/08/15 13:37:41;;;;;;;5.97;3.88;;;28.50;37.00;;;;;;5090359;28;20048;-46
2021/08/15 13:40:08;;;;;;;9.48;4.53;;;28.70;37.10;;;;;;5090107;28;20091;-50
2021/08/15 13:42:36;;;;;;;6.88;3.78;;;28.40;38.20;;;;;;5089537;28;20028;-47
2021/08/15 13:45:03;;;;;;;8.35;4.00;;;28.90;37.70;;;;;;5089590;28;20020;-49
2021/08/15 13:47:35;;;;;;;9.52;3.40;;;28.40;39.30;;;;;;5089819;28;20016;-49
2021/08/15 13:50:00;;;;;;;8.38;3.22;;;27.80;40.40;;;;;;5089988;28;20039;-49
2021/08/15 13:52:26;;;;;;;6.30;3.85;;;28.40;39.40;;;;;;5089506;28;20029;-47
2021/08/15 13:54:53;;;;;;;5.05;3.15;;;28.80;38.80;;;;;;5087842;28;20494;-46
2021/08/15 13:57:19;;;;;;;5.10;3.28;;;28.50;39.40;;;;;;5089525;28;20051;-48